Time;durP1;ratioP1;P1;durP2;ratioP2;P2;SDS_P1;SDS_P2;PMS_P1;PMS_P2;Temp;Humidity;BMP_temperature;BMP_pressure;BME280_temperature;BME280_humidity;BME280_pressure;Samples;Min_cycle;Max_cycle;Signal;HPM_P1;HPM_P2
2021/12/24 00:02:02;;;;;;;0.70;0.70;;;-0.50;99.90;;;;;;5259936;28;20027;-77
2021/12/24 00:04:40;;;;;;;1.80;1.70;;;-0.50;99.90;;;;;;5249584;28;20052;-77
2021/12/24 00:07:20;;;;;;;1.33;1.33;;;-0.40;99.90;;;;;;5260239;28;20110;-76
2021/12/24 00:09:51;;;;;;;0.63;0.63;;;-0.40;99.90;;;;;;5227249;28;20027;-76
2021/12/24 00:12:27;;;;;;;1.00;1.00;;;-0.40;99.90;;;;;;5258247;28;20039;-77
2021/12/24 00:15:12;;;;;;;0.70;0.70;;;-0.30;99.90;;;;;;5254741;28;20051;-77
2021/12/24 00:17:45;;;;;;;0.75;0.75;;;-0.20;99.90;;;;;;5255532;28;20099;-76
2021/12/24 00:37:21;;;;;;;1.07;1.07;;;-0.70;99.90;;;;;;5259204;28;20380;-77
2021/12/24 00:40:33;;;;;;;3.17;1.95;;;-0.70;99.90;;;;;;5240942;28;20032;-78
2021/12/24 00:43:00;;;;;;;1.03;1.03;;;-0.60;99.90;;;;;;5241852;28;20064;-77
2021/12/24 00:45:42;;;;;;;2.15;2.05;;;-0.50;99.90;;;;;;5228386;28;20100;-77
2021/12/24 00:48:19;;;;;;;1.33;0.93;;;-0.70;99.90;;;;;;5258485;28;20032;-78
2021/12/24 00:56:16;;;;;;;1.60;1.50;;;-0.70;99.90;;;;;;5255236;28;20547;-76
2021/12/24 00:58:51;;;;;;;0.47;0.47;;;-0.60;99.90;;;;;;5259166;28;20119;-76
2021/12/24 01:01:27;;;;;;;0.98;0.98;;;-0.60;99.90;;;;;;5260097;28;20028;-76
2021/12/24 01:03:58;;;;;;;0.60;0.60;;;-0.50;99.90;;;;;;5258388;28;20142;-76
2021/12/24 01:06:38;;;;;;;2.40;2.20;;;-0.60;99.90;;;;;;5232704;28;20389;-77
2021/12/24 01:09:11;;;;;;;1.00;1.00;;;-0.50;99.90;;;;;;5276435;28;20035;-77
2021/12/24 01:11:47;;;;;;;0.73;0.73;;;-0.50;99.90;;;;;;5259007;28;20044;-77
2021/12/24 01:14:21;;;;;;;2.78;1.90;;;-0.50;99.90;;;;;;5258494;28;20233;-77
2021/12/24 01:17:26;;;;;;;0.55;0.55;;;-0.70;99.90;;;;;;5240771;28;20025;-77
2021/12/24 01:19:52;;;;;;;1.27;1.27;;;-0.60;99.90;;;;;;5238295;28;20060;-77
2021/12/24 01:25:20;;;;;;;1.88;1.77;;;-0.60;99.90;;;;;;5237050;28;20036;-76
2021/12/24 01:40:06;;;;;;;1.25;1.25;;;3.70;99.90;;;;;;5238977;28;20347;-75
2021/12/24 01:45:26;;;;;;;1.23;1.23;;;6.00;99.90;;;;;;5239746;28;20085;-76
2021/12/24 01:48:05;;;;;;;0.60;0.60;;;6.70;99.90;;;;;;5218252;28;20100;-77
2021/12/24 01:50:42;;;;;;;0.95;0.95;;;7.30;99.90;;;;;;5275095;28;20035;-75
2021/12/24 01:53:21;;;;;;;1.88;1.77;;;7.40;99.90;;;;;;5258031;28;20039;-76
2021/12/24 01:55:59;;;;;;;0.52;0.52;;;7.50;99.90;;;;;;5240382;28;20135;-76
2021/12/24 01:58:35;;;;;;;0.73;0.73;;;7.70;99.90;;;;;;5236851;28;20450;-75
2021/12/24 02:01:08;;;;;;;0.50;0.50;;;7.80;99.90;;;;;;5247830;28;20349;-77
2021/12/24 02:03:44;;;;;;;0.82;0.82;;;8.00;99.90;;;;;;5257368;28;20020;-74
2021/12/24 02:06:18;;;;;;;0.68;0.68;;;8.20;99.90;;;;;;5250027;28;20068;-75
2021/12/24 02:08:51;;;;;;;0.60;0.60;;;8.30;99.90;;;;;;5243391;28;20036;-76
2021/12/24 02:11:25;;;;;;;0.60;0.60;;;8.30;99.90;;;;;;5224147;28;20521;-75
2021/12/24 02:14:02;;;;;;;0.60;0.60;;;8.60;99.90;;;;;;5240474;28;20028;-75
2021/12/24 02:16:46;;;;;;;0.70;0.70;;;8.50;99.90;;;;;;5223436;28;20097;-75
2021/12/24 02:28:21;;;;;;;0.88;0.88;;;8.50;99.90;;;;;;5261060;28;20099;-74
2021/12/24 02:30:55;;;;;;;0.70;0.70;;;8.50;99.90;;;;;;5259986;28;20089;-75
2021/12/24 02:33:27;;;;;;;;;;;8.40;99.90;;;;;;5264094;28;20029;-75
2021/12/24 02:35:58;;;;;;;0.50;0.50;;;8.30;99.90;;;;;;5279286;28;19912;-76
2021/12/24 02:38:33;;;;;;;1.00;1.00;;;8.40;99.90;;;;;;5261376;28;20028;-76
2021/12/24 02:41:11;;;;;;;1.00;1.00;;;8.40;99.90;;;;;;5263166;28;20039;-75
2021/12/24 02:43:45;;;;;;;0.90;0.90;;;8.50;99.90;;;;;;5246572;28;20032;-76
2021/12/24 02:46:31;;;;;;;1.45;1.45;;;8.50;99.90;;;;;;5262093;28;20043;-76
2021/12/24 02:54:26;;;;;;;0.93;0.93;;;8.30;99.90;;;;;;5260155;28;20040;-75
2021/12/24 02:57:06;;;;;;;0.60;0.60;;;8.10;99.90;;;;;;5223534;28;20505;-76
2021/12/24 02:59:47;;;;;;;0.95;0.95;;;8.30;99.90;;;;;;5248768;28;20107;-76
2021/12/24 03:02:18;;;;;;;0.77;0.77;;;8.20;99.90;;;;;;5261875;28;20043;-76
2021/12/24 03:04:52;;;;;;;1.70;1.70;;;8.20;99.90;;;;;;5243785;28;20103;-76
2021/12/24 03:07:23;;;;;;;1.35;1.35;;;8.30;99.90;;;;;;5238804;28;20291;-75
2021/12/24 03:10:00;;;;;;;0.75;0.75;;;8.30;99.90;;;;;;5241043;28;20091;-75
2021/12/24 03:12:33;;;;;;;0.55;0.55;;;8.50;99.90;;;;;;5239202;28;20051;-74
2021/12/24 03:15:07;;;;;;;1.05;1.05;;;8.50;99.90;;;;;;5247739;28;20038;-74
2021/12/24 03:17:38;;;;;;;0.60;0.60;;;8.60;99.90;;;;;;5241200;28;20036;-74
2021/12/24 03:20:10;;;;;;;0.90;0.90;;;8.70;99.90;;;;;;5254180;28;20381;-75
2021/12/24 03:23:05;;;;;;;0.95;0.95;;;8.80;99.90;;;;;;5276204;28;20034;-75
2021/12/24 03:25:39;;;;;;;0.60;0.60;;;8.90;99.90;;;;;;5242597;28;20036;-74
2021/12/24 03:28:10;;;;;;;;;;;9.00;99.90;;;;;;5256707;28;20374;-75
2021/12/24 03:30:44;;;;;;;0.80;0.80;;;9.00;99.90;;;;;;5258963;28;19912;-74
2021/12/24 03:33:17;;;;;;;1.38;1.27;;;8.90;99.90;;;;;;5260174;28;20024;-76
2021/12/24 03:35:50;;;;;;;1.10;1.10;;;9.10;99.90;;;;;;5242292;28;20028;-75
2021/12/24 03:38:26;;;;;;;1.05;1.05;;;9.20;99.90;;;;;;5224792;28;20060;-74
2021/12/24 03:40:57;;;;;;;0.77;0.77;;;9.20;99.90;;;;;;5257440;28;20041;-75
2021/12/24 03:43:33;;;;;;;0.90;0.90;;;9.30;99.90;;;;;;5257873;28;20044;-74
2021/12/24 03:46:14;;;;;;;0.70;0.70;;;9.20;99.90;;;;;;5245768;28;20414;-76
2021/12/24 03:56:48;;;;;;;0.60;0.60;;;9.40;99.90;;;;;;5259415;28;20233;-76
2021/12/24 03:59:22;;;;;;;0.65;0.65;;;9.30;99.90;;;;;;5258014;28;20118;-74
2021/12/24 04:01:55;;;;;;;0.90;0.90;;;9.60;99.90;;;;;;5260598;28;20218;-76
2021/12/24 04:04:31;;;;;;;0.68;0.68;;;9.90;99.90;;;;;;5228887;28;20020;-75
2021/12/24 04:07:03;;;;;;;0.80;0.80;;;9.90;99.90;;;;;;5237599;28;20108;-75
2021/12/24 04:09:46;;;;;;;0.90;0.90;;;10.10;99.90;;;;;;5240946;28;20031;-75
2021/12/24 04:12:22;;;;;;;0.88;0.88;;;10.10;99.90;;;;;;5244688;28;21037;-75
2021/12/24 04:14:53;;;;;;;0.70;0.70;;;10.30;99.90;;;;;;5237113;28;20480;-75
2021/12/24 04:17:24;;;;;;;1.33;1.33;;;10.30;99.90;;;;;;5249046;28;20028;-75
2021/12/24 04:25:38;;;;;;;1.63;1.52;;;10.50;99.90;;;;;;5257093;28;20032;-75
2021/12/24 04:28:09;;;;;;;0.60;0.60;;;10.60;99.90;;;;;;5256766;28;20540;-75
2021/12/24 04:30:49;;;;;;;1.02;1.02;;;10.70;99.90;;;;;;5240822;28;20035;-75
2021/12/24 04:33:29;;;;;;;0.70;0.70;;;10.90;99.90;;;;;;5258708;28;20036;-75
2021/12/24 04:53:24;;;;;;;0.50;0.50;;;11.20;99.90;;;;;;5258343;28;20051;-75
2021/12/24 05:01:42;;;;;;;0.90;0.90;;;11.30;99.90;;;;;;5235015;28;20226;-76
2021/12/24 05:04:14;;;;;;;0.70;0.70;;;11.10;99.90;;;;;;5194837;28;20078;-76
2021/12/24 05:06:52;;;;;;;0.70;0.70;;;10.80;99.90;;;;;;5237313;28;20131;-75
2021/12/24 05:09:31;;;;;;;0.70;0.70;;;10.50;99.90;;;;;;5238485;28;20052;-74
2021/12/24 05:12:06;;;;;;;0.73;0.73;;;10.10;99.90;;;;;;5236314;28;20028;-74
2021/12/24 05:14:37;;;;;;;0.65;0.65;;;10.10;99.90;;;;;;5239320;28;20028;-74
2021/12/24 05:17:32;;;;;;;0.90;0.90;;;10.10;99.90;;;;;;5247955;28;20032;-75
2021/12/24 05:22:57;;;;;;;1.30;1.20;;;9.20;99.90;;;;;;5242992;28;20081;-75
2021/12/24 05:25:36;;;;;;;1.00;1.00;;;8.90;99.90;;;;;;5255729;28;20032;-75
2021/12/24 05:28:14;;;;;;;0.60;0.60;;;8.80;99.90;;;;;;5257189;28;20059;-75
2021/12/24 05:30:46;;;;;;;0.63;0.63;;;8.60;99.90;;;;;;5241949;28;20028;-75
2021/12/24 05:33:24;;;;;;;0.80;0.80;;;8.60;99.90;;;;;;5260282;28;20060;-76
2021/12/24 05:36:05;;;;;;;1.27;1.27;;;8.60;99.90;;;;;;5243072;28;20416;-74
2021/12/24 05:38:41;;;;;;;0.90;0.90;;;9.10;99.90;;;;;;5239825;28;20357;-75
2021/12/24 05:41:18;;;;;;;0.70;0.70;;;9.30;99.90;;;;;;5242331;28;20621;-76
2021/12/24 05:43:55;;;;;;;0.75;0.75;;;9.10;99.90;;;;;;5240578;28;20462;-77
2021/12/24 05:46:27;;;;;;;1.02;1.02;;;9.00;99.90;;;;;;5240581;28;20075;-75
2021/12/24 05:48:58;;;;;;;0.57;0.57;;;9.10;99.90;;;;;;5240621;28;20571;-74
2021/12/24 05:51:34;;;;;;;1.42;1.42;;;9.40;99.90;;;;;;5229636;28;20020;-74
2021/12/24 05:54:05;;;;;;;0.60;0.60;;;9.30;99.90;;;;;;5255183;28;20028;-76
2021/12/24 05:56:37;;;;;;;0.80;0.80;;;9.10;99.90;;;;;;5226299;28;20028;-76
2021/12/24 05:59:09;;;;;;;0.60;0.60;;;9.00;99.90;;;;;;5260851;28;20322;-76
2021/12/24 06:01:42;;;;;;;0.80;0.80;;;9.00;99.90;;;;;;5260856;28;20420;-76
2021/12/24 06:04:13;;;;;;;0.90;0.90;;;9.30;99.90;;;;;;5251417;28;20027;-76
2021/12/24 06:06:46;;;;;;;0.90;0.90;;;9.70;99.90;;;;;;5262775;28;20562;-76
2021/12/24 06:09:19;;;;;;;0.80;0.80;;;10.00;99.90;;;;;;5264867;28;20035;-76
2021/12/24 06:11:57;;;;;;;1.40;1.30;;;10.50;99.90;;;;;;5262264;28;20527;-76
2021/12/24 06:14:28;;;;;;;1.10;1.10;;;10.90;99.90;;;;;;5238445;28;20545;-75
2021/12/24 06:17:04;;;;;;;0.60;0.60;;;10.90;99.90;;;;;;5261551;28;20032;-75
2021/12/24 06:19:37;;;;;;;1.38;1.38;;;11.00;99.90;;;;;;5260436;28;20051;-76
2021/12/24 06:22:09;;;;;;;0.70;0.70;;;10.60;99.90;;;;;;5258572;28;20036;-75
2021/12/24 06:24:45;;;;;;;0.68;0.68;;;10.10;99.90;;;;;;5243187;28;20028;-76
2021/12/24 06:27:21;;;;;;;0.70;0.70;;;9.60;99.90;;;;;;5243175;28;20032;-75
2021/12/24 06:29:52;;;;;;;0.60;0.60;;;9.90;99.90;;;;;;5261255;28;20031;-76
2021/12/24 06:32:23;;;;;;;0.77;0.77;;;10.60;99.90;;;;;;5243799;28;20040;-76
2021/12/24 06:34:56;;;;;;;0.70;0.70;;;11.00;99.90;;;;;;5259471;28;20037;-76
2021/12/24 06:37:30;;;;;;;0.73;0.73;;;11.00;99.90;;;;;;5259912;28;20062;-76
2021/12/24 06:40:01;;;;;;;0.70;0.70;;;11.20;99.90;;;;;;5259996;28;20056;-76
2021/12/24 06:42:32;;;;;;;0.70;0.70;;;11.20;99.90;;;;;;5261156;28;20425;-75
2021/12/24 06:45:04;;;;;;;0.85;0.85;;;11.20;99.90;;;;;;5252190;28;20028;-76
2021/12/24 06:47:41;;;;;;;0.73;0.73;;;11.20;99.90;;;;;;5255634;28;20373;-76
2021/12/24 06:50:20;;;;;;;0.73;0.73;;;11.30;99.90;;;;;;5254622;28;20024;-76
2021/12/24 06:52:54;;;;;;;0.82;0.82;;;11.40;99.90;;;;;;5246777;28;20024;-76
2021/12/24 06:55:28;;;;;;;0.90;0.90;;;11.50;99.90;;;;;;5242959;28;20048;-75
2021/12/24 06:58:05;;;;;;;0.90;0.90;;;11.50;99.90;;;;;;5244355;28;20107;-76
2021/12/24 07:00:36;;;;;;;0.70;0.70;;;11.50;99.90;;;;;;5251043;28;20020;-75
2021/12/24 07:03:10;;;;;;;0.77;0.77;;;11.50;99.90;;;;;;5250817;28;20063;-76
2021/12/24 07:05:43;;;;;;;0.63;0.63;;;11.50;99.90;;;;;;5242592;28;20052;-75
2021/12/24 07:08:14;;;;;;;1.27;1.27;;;11.50;99.90;;;;;;5239151;28;20033;-75
2021/12/24 07:10:47;;;;;;;0.80;0.80;;;11.60;99.90;;;;;;5222597;28;20107;-75
2021/12/24 07:13:27;;;;;;;1.00;1.00;;;11.50;99.90;;;;;;5223421;28;20074;-74
2021/12/24 07:16:03;;;;;;;0.60;0.60;;;11.50;99.90;;;;;;5238488;28;20037;-75
2021/12/24 07:18:36;;;;;;;2.28;1.60;;;11.60;99.90;;;;;;5245437;28;20024;-75
2021/12/24 07:21:13;;;;;;;0.65;0.65;;;11.70;99.90;;;;;;5260637;28;20059;-75
2021/12/24 07:23:45;;;;;;;0.73;0.73;;;11.70;99.90;;;;;;5241842;28;20296;-75
2021/12/24 07:26:16;;;;;;;0.75;0.75;;;11.80;99.90;;;;;;5255268;28;20035;-74
2021/12/24 07:28:49;;;;;;;0.65;0.65;;;11.80;99.90;;;;;;5243812;28;20039;-75
2021/12/24 07:31:23;;;;;;;0.60;0.60;;;11.80;99.90;;;;;;5275846;28;20493;-77
2021/12/24 07:33:56;;;;;;;0.63;0.63;;;11.70;99.90;;;;;;5242483;28;20535;-77
2021/12/24 07:36:28;;;;;;;1.10;1.10;;;11.80;99.90;;;;;;5240757;28;20035;-75
2021/12/24 07:39:00;;;;;;;0.73;0.73;;;11.80;99.90;;;;;;5239611;28;20050;-74
2021/12/24 07:41:33;;;;;;;0.70;0.70;;;11.90;99.90;;;;;;5240308;28;20024;-75
2021/12/24 07:44:11;;;;;;;0.90;0.90;;;11.80;99.90;;;;;;5257089;28;20094;-76
2021/12/24 07:46:53;;;;;;;1.60;1.50;;;11.90;99.90;;;;;;5241011;28;20036;-77
2021/12/24 07:49:30;;;;;;;0.70;0.70;;;11.80;99.90;;;;;;5243122;28;20229;-75
2021/12/24 07:52:12;;;;;;;0.70;0.70;;;11.80;99.90;;;;;;5258353;28;20063;-74
2021/12/24 07:54:54;;;;;;;0.73;0.73;;;11.90;99.90;;;;;;5260001;28;20047;-77
2021/12/24 07:57:24;;;;;;;0.70;0.70;;;11.80;99.90;;;;;;5242434;28;20031;-76
2021/12/24 07:59:58;;;;;;;1.63;1.55;;;11.80;99.90;;;;;;5250232;28;20094;-77
2021/12/24 08:02:37;;;;;;;0.70;0.70;;;11.90;99.90;;;;;;5252066;28;20044;-75
2021/12/24 08:05:08;;;;;;;0.77;0.77;;;11.90;99.90;;;;;;5248103;28;20078;-76
2021/12/24 08:07:42;;;;;;;0.60;0.60;;;11.90;99.90;;;;;;5263606;28;20048;-76
2021/12/24 08:10:13;;;;;;;0.90;0.90;;;11.90;99.90;;;;;;5259761;28;20034;-76
2021/12/24 08:12:46;;;;;;;0.80;0.80;;;12.00;99.90;;;;;;5253543;28;20035;-75
2021/12/24 08:15:20;;;;;;;5.00;1.90;;;12.00;99.90;;;;;;5223036;28;20032;-74
2021/12/24 08:17:55;;;;;;;1.02;1.02;;;12.10;99.90;;;;;;5254098;28;20225;-76
2021/12/24 08:20:30;;;;;;;0.80;0.80;;;12.10;99.90;;;;;;5248643;28;20037;-74
2021/12/24 08:23:05;;;;;;;0.80;0.80;;;12.20;99.90;;;;;;5241244;28;20028;-75
2021/12/24 08:25:39;;;;;;;0.77;0.77;;;12.10;99.90;;;;;;5239019;28;20036;-75
2021/12/24 08:28:14;;;;;;;0.70;0.70;;;12.10;99.90;;;;;;5227962;28;20361;-75
2021/12/24 08:30:45;;;;;;;0.90;0.90;;;12.10;99.90;;;;;;5241175;28;20077;-76
2021/12/24 08:33:18;;;;;;;0.70;0.70;;;12.10;99.90;;;;;;5249093;28;20035;-75
2021/12/24 08:35:55;;;;;;;1.00;1.00;;;12.10;99.90;;;;;;5258643;28;20099;-75
2021/12/24 08:38:31;;;;;;;0.80;0.80;;;12.20;99.90;;;;;;5232197;28;20035;-74
2021/12/24 08:41:06;;;;;;;1.33;1.15;;;12.20;99.90;;;;;;5251525;28;20028;-74
2021/12/24 08:43:38;;;;;;;0.63;0.63;;;12.40;99.90;;;;;;5267425;27;20038;-77
2021/12/24 08:46:11;;;;;;;0.80;0.80;;;12.30;99.90;;;;;;5250140;28;20526;-74
2021/12/24 08:48:51;;;;;;;0.80;0.80;;;12.40;99.90;;;;;;5252109;28;20036;-75
2021/12/24 08:51:26;;;;;;;0.80;0.80;;;12.40;99.90;;;;;;5251783;28;20036;-73
2021/12/24 08:53:57;;;;;;;0.80;0.80;;;12.50;99.90;;;;;;5232611;28;20043;-73
2021/12/24 08:56:28;;;;;;;0.80;0.80;;;12.40;99.90;;;;;;5256362;28;20036;-75
2021/12/24 08:59:03;;;;;;;0.80;0.80;;;12.50;99.90;;;;;;5249960;28;20577;-74
2021/12/24 09:01:34;;;;;;;0.50;0.50;;;12.50;99.90;;;;;;5256301;28;20040;-75
2021/12/24 09:04:05;;;;;;;0.90;0.90;;;12.40;99.90;;;;;;5255742;28;20034;-75
2021/12/24 09:06:39;;;;;;;0.70;0.70;;;12.40;99.90;;;;;;5229435;28;20040;-74
2021/12/24 09:09:10;;;;;;;0.70;0.70;;;12.40;99.90;;;;;;5256929;28;20047;-75
2021/12/24 09:11:49;;;;;;;0.80;0.80;;;12.40;99.90;;;;;;5264407;28;20125;-74
2021/12/24 09:14:21;;;;;;;0.60;0.60;;;12.40;99.90;;;;;;5258328;28;20104;-76
2021/12/24 09:17:00;;;;;;;0.50;0.50;;;12.40;99.90;;;;;;5256711;28;20582;-76
2021/12/24 09:19:34;;;;;;;0.65;0.65;;;12.40;99.90;;;;;;5260871;28;20088;-76
2021/12/24 09:22:08;;;;;;;0.82;0.82;;;12.40;99.90;;;;;;5227803;28;20032;-76
2021/12/24 09:24:42;;;;;;;0.93;0.93;;;12.30;99.90;;;;;;5263021;28;20020;-74
2021/12/24 09:27:17;;;;;;;0.77;0.77;;;12.30;99.90;;;;;;5241636;28;20028;-76
2021/12/24 09:29:48;;;;;;;0.77;0.77;;;12.30;99.90;;;;;;5244853;28;20137;-74
2021/12/24 09:32:19;;;;;;;0.82;0.82;;;12.30;99.90;;;;;;5240349;28;20042;-75
2021/12/24 09:34:52;;;;;;;0.93;0.93;;;12.30;99.90;;;;;;5240673;28;20081;-74
2021/12/24 09:37:26;;;;;;;0.82;0.82;;;12.30;99.90;;;;;;5226108;28;20094;-75
2021/12/24 09:40:09;;;;;;;0.65;0.65;;;12.30;99.90;;;;;;5256678;28;20108;-76
2021/12/24 09:42:41;;;;;;;0.60;0.60;;;12.30;99.90;;;;;;5240175;28;20272;-74
2021/12/24 09:45:16;;;;;;;0.85;0.85;;;12.20;99.90;;;;;;5268311;28;20081;-74
2021/12/24 09:47:52;;;;;;;0.80;0.80;;;12.20;99.90;;;;;;5252898;28;20494;-75
2021/12/24 09:50:29;;;;;;;0.80;0.80;;;12.20;99.90;;;;;;5249486;28;20134;-75
2021/12/24 09:53:00;;;;;;;0.90;0.90;;;12.10;99.90;;;;;;5261274;28;20337;-75
2021/12/24 09:55:34;;;;;;;0.75;0.75;;;12.10;99.90;;;;;;5258657;28;20040;-74
2021/12/24 09:58:05;;;;;;;1.20;1.20;;;12.10;99.90;;;;;;5261394;28;20032;-76
2021/12/24 10:00:38;;;;;;;0.80;0.80;;;12.10;99.90;;;;;;5243925;28;20024;-74
2021/12/24 10:03:32;;;;;;;0.88;0.88;;;12.00;99.90;;;;;;5267185;28;20067;-75
2021/12/24 10:06:07;;;;;;;0.70;0.70;;;12.00;99.90;;;;;;5246249;28;20048;-74
2021/12/24 10:08:41;;;;;;;0.90;0.90;;;12.00;99.90;;;;;;5256103;28;20043;-77
2021/12/24 10:11:14;;;;;;;1.73;1.63;;;12.00;99.90;;;;;;5252670;28;20032;-76
2021/12/24 10:13:51;;;;;;;0.90;0.90;;;11.90;99.90;;;;;;5241823;28;20030;-76
2021/12/24 10:16:22;;;;;;;1.10;1.10;;;11.90;99.90;;;;;;5256803;28;20060;-76
2021/12/24 10:18:57;;;;;;;0.77;0.77;;;11.80;99.90;;;;;;5237867;28;20040;-74
2021/12/24 10:21:35;;;;;;;0.82;0.82;;;11.80;99.90;;;;;;5260056;28;20035;-75
2021/12/24 10:24:09;;;;;;;0.73;0.73;;;11.70;99.90;;;;;;5248243;28;20111;-75
2021/12/24 10:26:55;;;;;;;0.80;0.80;;;11.70;99.90;;;;;;5261113;28;20032;-77
2021/12/24 10:29:43;;;;;;;0.80;0.80;;;11.70;99.90;;;;;;5254436;28;20526;-75
2021/12/24 10:32:19;;;;;;;1.27;1.27;;;11.70;99.90;;;;;;5243174;28;20325;-76
2021/12/24 10:34:50;;;;;;;1.10;1.10;;;11.80;99.90;;;;;;5261612;28;20020;-75
2021/12/24 10:37:28;;;;;;;0.70;0.70;;;11.70;99.90;;;;;;5261036;28;20152;-75
2021/12/24 10:40:03;;;;;;;0.90;0.90;;;11.60;99.90;;;;;;5258879;28;20095;-76
2021/12/24 10:42:43;;;;;;;0.90;0.90;;;11.60;99.90;;;;;;5258381;28;20020;-74
2021/12/24 10:45:21;;;;;;;0.90;0.90;;;11.60;99.90;;;;;;5260523;28;20016;-75
2021/12/24 10:47:54;;;;;;;0.63;0.63;;;11.50;99.90;;;;;;5258884;28;20027;-74
2021/12/24 10:50:33;;;;;;;0.80;0.80;;;11.50;99.90;;;;;;5240481;28;20036;-75
2021/12/24 10:53:32;;;;;;;0.80;0.80;;;11.60;99.90;;;;;;5243627;28;20032;-75
2021/12/24 10:56:05;;;;;;;0.90;0.90;;;11.60;99.90;;;;;;5243288;28;20039;-75
2021/12/24 10:58:48;;;;;;;0.60;0.60;;;11.60;99.90;;;;;;5245332;28;20032;-75
2021/12/24 11:01:22;;;;;;;0.80;0.80;;;11.60;99.90;;;;;;5252978;28;20438;-74
2021/12/24 11:03:56;;;;;;;0.77;0.77;;;11.50;99.90;;;;;;5254904;28;20032;-75
2021/12/24 11:06:35;;;;;;;0.80;0.80;;;11.50;99.90;;;;;;5242769;28;20051;-75
2021/12/24 11:09:14;;;;;;;0.80;0.80;;;11.50;99.90;;;;;;5257203;28;20035;-76
2021/12/24 11:11:55;;;;;;;1.20;1.20;;;11.40;99.90;;;;;;5263205;28;20032;-82
2021/12/24 11:14:31;;;;;;;0.70;0.70;;;11.50;99.90;;;;;;5257265;28;20023;-77
2021/12/24 11:17:06;;;;;;;0.73;0.73;;;11.50;99.90;;;;;;5237435;28;20060;-78
2021/12/24 11:19:54;;;;;;;0.70;0.70;;;11.50;99.90;;;;;;5258009;28;20032;-78
2021/12/24 11:22:27;;;;;;;0.70;0.70;;;11.50;99.90;;;;;;5249905;28;20016;-77
2021/12/24 11:25:03;;;;;;;0.50;0.50;;;11.60;99.90;;;;;;5257896;28;20421;-78
2021/12/24 11:27:34;;;;;;;0.70;0.70;;;11.60;99.90;;;;;;5235863;28;20066;-78
2021/12/24 11:30:11;;;;;;;0.73;0.73;;;11.60;99.90;;;;;;5255094;28;20389;-79
2021/12/24 11:32:46;;;;;;;0.70;0.70;;;11.70;99.90;;;;;;5237328;28;20101;-78
2021/12/24 11:35:20;;;;;;;1.30;1.30;;;11.60;99.90;;;;;;5246483;28;20032;-76
2021/12/24 11:37:53;;;;;;;0.70;0.70;;;11.60;99.90;;;;;;5244993;28;20029;-77
2021/12/24 11:40:25;;;;;;;1.88;1.70;;;11.60;99.90;;;;;;5253242;28;20302;-78
2021/12/24 11:43:04;;;;;;;0.95;0.95;;;11.50;99.90;;;;;;5252139;28;20039;-79
2021/12/24 11:45:37;;;;;;;0.70;0.70;;;11.60;99.90;;;;;;5241841;28;20036;-78
2021/12/24 11:48:08;;;;;;;0.70;0.70;;;11.60;99.90;;;;;;5250246;28;20024;-77
2021/12/24 11:50:40;;;;;;;0.90;0.90;;;11.50;99.90;;;;;;5255583;28;20067;-79
2021/12/24 11:53:16;;;;;;;0.60;0.60;;;11.50;99.90;;;;;;5239714;28;20378;-78
2021/12/24 11:55:56;;;;;;;1.00;1.00;;;11.60;99.90;;;;;;5246161;28;20112;-80
2021/12/24 11:58:32;;;;;;;0.85;0.85;;;11.50;99.90;;;;;;5243033;28;20032;-79
2021/12/24 12:01:06;;;;;;;0.90;0.90;;;11.40;99.90;;;;;;5238696;28;20032;-81
2021/12/24 12:04:03;;;;;;;1.40;1.30;;;11.20;99.90;;;;;;5236780;28;20048;-79
2021/12/24 12:06:37;;;;;;;1.23;1.00;;;11.10;99.90;;;;;;5230329;28;20059;-77
2021/12/24 12:09:12;;;;;;;0.80;0.80;;;11.10;99.90;;;;;;5258451;28;20195;-78
2021/12/24 12:11:48;;;;;;;0.80;0.80;;;11.00;99.90;;;;;;5249748;28;20441;-77
2021/12/24 12:14:26;;;;;;;0.73;0.73;;;11.00;99.90;;;;;;5242811;28;20121;-77
2021/12/24 12:17:14;;;;;;;0.90;0.90;;;11.10;99.90;;;;;;5226415;28;20127;-79
2021/12/24 12:20:00;;;;;;;0.90;0.90;;;11.10;99.90;;;;;;5256757;28;20031;-80
2021/12/24 12:25:31;;;;;;;0.80;0.80;;;11.20;99.90;;;;;;5245915;28;20032;-79
2021/12/24 12:28:08;;;;;;;0.90;0.90;;;11.10;99.90;;;;;;5243951;28;20025;-78
2021/12/24 12:30:58;;;;;;;0.90;0.90;;;11.10;99.90;;;;;;5237133;28;20024;-79
2021/12/24 12:33:36;;;;;;;0.80;0.80;;;11.20;99.90;;;;;;5250265;28;20097;-78
2021/12/24 12:36:08;;;;;;;1.33;1.33;;;11.20;99.90;;;;;;5257576;28;20028;-81
2021/12/24 12:38:46;;;;;;;0.90;0.90;;;11.10;99.90;;;;;;5258611;28;20091;-77
2021/12/24 12:41:30;;;;;;;1.00;1.00;;;11.10;99.90;;;;;;5258528;28;20091;-78
2021/12/24 12:44:11;;;;;;;0.80;0.80;;;11.00;99.90;;;;;;5253012;28;20040;-80
2021/12/24 12:46:51;;;;;;;0.90;0.90;;;11.10;99.90;;;;;;5259053;28;20107;-78
2021/12/24 12:49:35;;;;;;;0.88;0.88;;;11.10;99.90;;;;;;5238927;28;20119;-78
2021/12/24 12:52:32;;;;;;;0.80;0.80;;;11.10;99.90;;;;;;5237538;28;20413;-80
2021/12/24 12:55:04;;;;;;;0.80;0.80;;;11.10;99.90;;;;;;5258851;28;20036;-77
2021/12/24 12:57:42;;;;;;;0.90;0.90;;;11.10;99.90;;;;;;5258131;28;20222;-78
2021/12/24 13:00:27;;;;;;;0.80;0.80;;;11.00;99.90;;;;;;5258762;28;20036;-78
2021/12/24 13:03:01;;;;;;;1.33;1.33;;;11.10;99.90;;;;;;5257524;28;20077;-77
2021/12/24 13:05:52;;;;;;;0.90;0.90;;;11.00;99.90;;;;;;5257951;28;20063;-78
2021/12/24 13:08:36;;;;;;;0.80;0.80;;;11.10;99.90;;;;;;5255932;28;20043;-79
2021/12/24 13:11:23;;;;;;;1.10;1.10;;;11.00;99.90;;;;;;5257608;28;20291;-78
2021/12/24 13:14:02;;;;;;;0.70;0.70;;;11.00;99.90;;;;;;5226322;28;20037;-81
2021/12/24 13:16:49;;;;;;;0.77;0.77;;;11.00;99.90;;;;;;5253825;28;20032;-77
2021/12/24 13:19:44;;;;;;;1.20;1.20;;;10.90;99.90;;;;;;5238073;28;20020;-78
2021/12/24 13:22:30;;;;;;;0.90;0.90;;;10.90;99.90;;;;;;5236941;28;20105;-78
2021/12/24 13:25:14;;;;;;;0.82;0.82;;;10.90;99.90;;;;;;5237610;28;20052;-78
2021/12/24 13:27:58;;;;;;;0.70;0.70;;;10.80;99.90;;;;;;5204488;28;20024;-77
2021/12/24 13:30:33;;;;;;;0.80;0.80;;;10.90;99.90;;;;;;5256973;28;20074;-78
2021/12/24 13:33:08;;;;;;;0.82;0.82;;;10.90;99.90;;;;;;5240633;28;20032;-78
2021/12/24 13:35:52;;;;;;;0.70;0.70;;;10.90;99.90;;;;;;5259676;28;20027;-77
2021/12/24 13:38:26;;;;;;;0.82;0.82;;;10.90;99.90;;;;;;5258934;28;20358;-78
2021/12/24 13:40:57;;;;;;;0.77;0.77;;;10.90;99.90;;;;;;5256452;28;20035;-77
2021/12/24 13:43:28;;;;;;;0.90;0.90;;;10.90;99.90;;;;;;5256728;28;20571;-77
2021/12/24 13:46:12;;;;;;;0.80;0.80;;;10.80;99.90;;;;;;5257929;28;20031;-78
2021/12/24 13:54:38;;;;;;;0.88;0.88;;;10.70;99.90;;;;;;5251083;28;20048;-77
2021/12/24 13:57:11;;;;;;;0.90;0.90;;;10.70;99.90;;;;;;5252352;28;20048;-80
2021/12/24 13:59:43;;;;;;;0.90;0.90;;;10.60;99.90;;;;;;5254047;28;20031;-78
2021/12/24 14:02:18;;;;;;;0.80;0.80;;;10.60;99.90;;;;;;5257558;28;20040;-77
2021/12/24 14:05:01;;;;;;;0.70;0.70;;;10.50;99.90;;;;;;5250229;28;20052;-80
2021/12/24 14:07:34;;;;;;;0.60;0.60;;;10.50;99.90;;;;;;5244015;28;20455;-80
2021/12/24 14:10:25;;;;;;;0.90;0.90;;;10.50;99.90;;;;;;5239912;28;20458;-81
2021/12/24 14:13:11;;;;;;;0.68;0.68;;;10.50;99.90;;;;;;5245887;28;20067;-79
2021/12/24 14:18:47;;;;;;;0.85;0.85;;;10.40;99.90;;;;;;5218419;28;20031;-78
2021/12/24 14:24:15;;;;;;;0.90;0.90;;;10.30;99.90;;;;;;5255397;28;20036;-79
2021/12/24 14:27:02;;;;;;;0.93;0.93;;;10.20;99.90;;;;;;5240502;28;20036;-79
2021/12/24 14:29:47;;;;;;;0.95;0.95;;;10.20;99.90;;;;;;5250235;28;20309;-79
2021/12/24 14:32:34;;;;;;;;;;;10.20;99.90;;;;;;5237833;28;20208;-79
2021/12/24 14:35:25;;;;;;;0.63;0.63;;;10.20;99.90;;;;;;5242511;28;20461;-79
2021/12/24 14:38:17;;;;;;;0.70;0.70;;;10.20;99.90;;;;;;5231018;28;20019;-80
2021/12/24 14:40:57;;;;;;;0.80;0.80;;;10.20;99.90;;;;;;5261420;28;20073;-79
2021/12/24 14:43:35;;;;;;;1.35;1.30;;;10.20;99.90;;;;;;5255996;28;20024;-80
2021/12/24 14:46:08;;;;;;;0.90;0.90;;;10.10;99.90;;;;;;5249869;28;20032;-80
2021/12/24 14:48:38;;;;;;;0.85;0.85;;;10.10;99.90;;;;;;5247342;28;20050;-79
2021/12/24 14:51:10;;;;;;;0.80;0.80;;;10.10;99.90;;;;;;5238757;28;20059;-82
2021/12/24 14:53:51;;;;;;;0.68;0.68;;;10.10;99.90;;;;;;5244888;28;20357;-78
2021/12/24 14:56:22;;;;;;;0.70;0.70;;;10.00;99.90;;;;;;5250541;28;20055;-79
2021/12/24 14:59:01;;;;;;;0.90;0.90;;;10.00;99.90;;;;;;5265420;28;20023;-79
2021/12/24 15:01:42;;;;;;;0.75;0.75;;;10.00;99.90;;;;;;5243654;28;20125;-79
2021/12/24 15:04:14;;;;;;;0.73;0.73;;;10.10;99.90;;;;;;5231642;28;20032;-78
2021/12/24 15:06:54;;;;;;;0.60;0.60;;;10.10;99.90;;;;;;5251297;28;20330;-81
2021/12/24 15:09:29;;;;;;;0.75;0.75;;;10.20;99.90;;;;;;5260201;28;20028;-82
2021/12/24 15:12:20;;;;;;;0.77;0.77;;;10.10;99.90;;;;;;5245329;28;20028;-81
2021/12/24 15:14:57;;;;;;;0.95;0.95;;;10.00;99.90;;;;;;5229002;28;20107;-80
2021/12/24 15:17:41;;;;;;;0.80;0.80;;;9.90;99.90;;;;;;5259035;28;20075;-81
2021/12/24 15:20:15;;;;;;;0.90;0.90;;;9.90;99.90;;;;;;5250018;28;20064;-78
2021/12/24 15:22:48;;;;;;;1.45;1.38;;;9.80;99.90;;;;;;5248189;28;20084;-80
2021/12/24 15:25:26;;;;;;;0.90;0.90;;;9.90;99.90;;;;;;5261670;28;20036;-82
2021/12/24 15:28:08;;;;;;;0.88;0.88;;;9.90;99.90;;;;;;5257871;28;20318;-81